Time;durP1;ratioP1;P1;durP2;ratioP2;P2;SDS_P1;SDS_P2;PMS_P1;PMS_P2;Temp;Humidity;BMP_temperature;BMP_pressure;BME280_temperature;BME280_humidity;BME280_pressure;Samples;Min_cycle;Max_cycle;Signal;HPM_P1;HPM_P2
2024/02/09 00:00:19;;;;;;;0.20;0.20;;;;;;;9.28;100.00;99703.66;4869697;29;20425;-69
2024/02/09 00:02:45;;;;;;;5.90;5.57;;;;;;;9.29;100.00;99731.56;4869581;29;20124;-71
2024/02/09 00:05:15;;;;;;;0.32;0.32;;;;;;;9.23;100.00;99719.41;4874043;29;20515;-69
2024/02/09 00:07:45;;;;;;;1.85;1.75;;;;;;;9.25;100.00;99730.72;4873015;29;20486;-71
2024/02/09 00:10:12;;;;;;;0.30;0.30;;;;;;;8.70;100.00;99626.34;4873920;29;20033;-70
2024/02/09 00:12:39;;;;;;;12.13;11.25;;;;;;;9.26;100.00;99736.81;4855255;29;20053;-69
2024/02/09 00:15:06;;;;;;;2.47;1.85;;;;;;;9.22;100.00;99722.88;4873560;29;20044;-69
2024/02/09 00:17:36;;;;;;;4.25;3.00;;;;;;;8.45;100.00;99608.19;4870717;29;20053;-71
2024/02/09 00:20:07;;;;;;;4.13;2.88;;;;;;;8.94;100.00;99700.34;4870186;29;20057;-71
2024/02/09 00:22:39;;;;;;;1.20;1.20;;;;;;;8.61;100.00;99663.00;4873116;29;20061;-69
2024/02/09 00:25:08;;;;;;;1.73;1.35;;;;;;;8.85;100.00;99702.16;4872616;29;20037;-69
2024/02/09 00:27:38;;;;;;;0.32;0.32;;;;;;;9.02;100.00;99729.97;4871651;29;20056;-69
2024/02/09 00:30:07;;;;;;;2.30;2.10;;;;;;;8.78;100.00;99700.44;4873539;29;20668;-69
2024/02/09 00:32:34;;;;;;;0.30;0.30;;;;;;;8.73;100.00;99704.78;4869113;29;20049;-69
2024/02/09 00:34:59;;;;;;;4.32;3.13;;;;;;;8.87;100.00;99726.56;4873118;29;20037;-69
2024/02/09 00:37:26;;;;;;;3.55;2.05;;;;;;;8.85;100.00;99727.44;4873511;29;20044;-68
2024/02/09 00:39:52;;;;;;;0.68;0.68;;;;;;;8.91;100.00;99719.56;4872990;29;20116;-69
2024/02/09 00:42:18;;;;;;;1.45;1.00;;;;;;;8.89;100.00;99718.69;4869790;29;20068;-70
2024/02/09 00:44:44;;;;;;;33.03;13.93;;;;;;;8.78;100.00;99705.66;4871996;29;20045;-70
2024/02/09 00:47:10;;;;;;;3.65;2.80;;;;;;;8.16;100.00;99618.69;4873371;29;20101;-70
2024/02/09 00:49:37;;;;;;;5.20;3.05;;;;;;;8.80;100.00;99716.09;4871614;29;22810;-70
2024/02/09 00:52:03;;;;;;;0.80;0.50;;;;;;;8.14;100.00;99625.66;4873769;29;20084;-69
2024/02/09 00:54:29;;;;;;;1.60;1.50;;;;;;;8.06;100.00;99593.47;4872286;29;20049;-69
2024/02/09 00:56:56;;;;;;;3.40;3.30;;;;;;;8.15;100.00;99600.44;4872646;29;20056;-69
2024/02/09 00:59:23;;;;;;;5.40;4.13;;;;;;;8.85;100.00;99709.13;4873273;29;20057;-69
2024/02/09 01:01:53;;;;;;;2.53;2.25;;;;;;;8.60;100.00;99703.13;4873557;29;20154;-70
2024/02/09 01:04:20;;;;;;;6.57;6.13;;;;;;;7.99;100.00;99592.63;4872314;29;20028;-70
2024/02/09 01:06:48;;;;;;;0.95;0.50;;;;;;;8.57;100.00;99684.81;4871729;29;20044;-70
2024/02/09 01:09:14;;;;;;;0.32;0.32;;;;;;;8.56;100.00;99717.94;4872527;29;20079;-70
2024/02/09 01:11:40;;;;;;;0.30;0.30;;;;;;;8.57;100.00;99704.00;4866215;29;20052;-70
2024/02/09 02:46:48;;;;;;;5.55;4.53;;;;;;;7.59;100.00;99743.25;4874379;29;20177;-69
2024/02/09 03:05:39;;;;;;;2.15;2.05;;;;;;;7.32;100.00;99731.88;4874847;29;20524;-69
2024/02/09 03:08:07;;;;;;;0.30;0.30;;;;;;;6.57;100.00;99674.28;4874703;29;20041;-71
2024/02/09 03:10:32;;;;;;;21.58;6.88;;;;;;;6.74;100.00;99646.56;4855657;29;20048;-70
2024/02/09 03:12:58;;;;;;;2.15;2.05;;;;;;;7.51;100.00;99755.41;4876288;29;20045;-71
2024/02/09 03:15:24;;;;;;;1.25;1.25;;;;;;;6.87;100.00;99637.03;4873632;29;20048;-71
2024/02/09 03:17:51;;;;;;;0.60;0.30;;;;;;;7.14;100.00;99693.59;4870830;29;20061;-69
2024/02/09 03:20:18;;;;;;;2.60;2.50;;;;;;;6.74;100.00;99636.13;4857562;29;20410;-69
2024/02/09 03:22:44;;;;;;;5.40;5.15;;;;;;;7.26;100.00;99718.84;4873122;29;20049;-70
2024/02/09 03:25:10;;;;;;;7.13;4.68;;;;;;;7.29;100.00;99747.56;4873476;29;20932;-70
2024/02/09 03:27:37;;;;;;;11.98;11.30;;;;;;;7.21;100.00;99728.41;4872914;29;20076;-70
2024/02/09 03:30:04;;;;;;;2.50;2.40;;;;;;;6.85;100.00;99645.72;4874248;29;20041;-70
2024/02/09 03:32:32;;;;;;;0.30;0.30;;;;;;;6.72;100.00;99642.22;4870827;29;20071;-70
2024/02/09 03:34:58;;;;;;;1.02;1.00;;;;;;;7.15;100.00;99759.69;4868218;29;20493;-70
2024/02/09 03:37:26;;;;;;;1.75;1.65;;;;;;;7.23;100.00;99750.13;4873482;29;20129;-70
2024/02/09 03:40:02;;;;;;;3.40;2.58;;;;;;;7.02;100.00;99737.88;4873152;29;20047;-69
2024/02/09 03:42:28;;;;;;;0.40;0.40;;;;;;;7.07;100.00;99766.59;4872797;29;20045;-71
2024/02/09 03:44:56;;;;;;;0.82;0.73;;;;;;;7.15;100.00;99751.88;4873589;29;20041;-70
2024/02/09 03:47:24;;;;;;;20.65;4.53;;;;;;;6.97;100.00;99745.69;4874147;29;20097;-69
2024/02/09 03:49:54;;;;;;;0.20;0.20;;;;;;;7.07;100.00;99737.91;4873647;29;20052;-71
2024/02/09 03:52:22;;;;;;;0.63;0.63;;;;;;;7.14;100.00;99744.88;4868718;29;20518;-69
2024/02/09 03:54:51;;;;;;;9.15;8.63;;;;;;;6.74;100.00;99657.00;4873972;29;20563;-70
2024/02/09 03:57:20;;;;;;;0.30;0.30;;;;;;;7.01;100.00;99730.94;4872895;29;20478;-71
2024/02/09 03:59:46;;;;;;;1.30;1.30;;;;;;;6.90;100.00;99664.84;4870705;29;20382;-69
2024/02/09 04:02:12;;;;;;;1.10;1.10;;;;;;;6.89;100.00;99658.75;4873233;29;20110;-71
2024/02/09 04:04:37;;;;;;;2.50;2.38;;;;;;;7.31;100.00;99718.88;4871441;29;20513;-69
2024/02/09 04:07:05;;;;;;;1.25;1.25;;;;;;;7.13;100.00;99688.38;4873313;29;20028;-69
2024/02/09 04:09:35;;;;;;;0.30;0.30;;;;;;;7.11;100.00;99718.78;4877126;29;20508;-69
2024/02/09 04:12:02;;;;;;;0.30;0.30;;;;;;;6.71;100.00;99622.19;4872449;29;20478;-69
2024/02/09 04:14:27;;;;;;;2.50;2.25;;;;;;;6.67;100.00;99615.22;4872108;29;20049;-69
2024/02/09 04:16:54;;;;;;;1.70;1.60;;;;;;;6.81;100.00;99630.91;4871571;29;20045;-68
2024/02/09 04:19:20;;;;;;;0.63;0.52;;;;;;;6.80;100.00;99635.25;4873258;29;20059;-69
2024/02/09 04:21:49;;;;;;;2.60;2.40;;;;;;;7.26;100.00;99721.47;4873355;29;20485;-71
2024/02/09 04:24:18;;;;;;;0.95;0.95;;;;;;;7.44;100.00;99736.25;4870815;29;20491;-70
2024/02/09 04:26:44;;;;;;;1.08;1.08;;;;;;;7.09;100.00;99712.69;4855360;29;20056;-71
2024/02/09 04:29:11;;;;;;;1.17;1.17;;;;;;;7.24;100.00;99727.53;4872192;29;20521;-69
2024/02/09 04:31:41;;;;;;;0.38;0.38;;;;;;;6.74;100.00;99632.63;4873291;29;20128;-69
2024/02/09 04:34:09;;;;;;;4.07;3.70;;;;;;;7.24;100.00;99725.81;4873743;29;20397;-69
2024/02/09 04:36:45;;;;;;;2.08;1.83;;;;;;;6.65;100.00;99635.19;4871494;29;20457;-70
2024/02/09 04:39:11;;;;;;;2.50;2.40;;;;;;;6.93;100.00;99639.66;4868638;29;20053;-69
2024/02/09 04:41:38;;;;;;;3.22;1.55;;;;;;;6.83;100.00;99629.19;4872071;29;20053;-70
2024/02/09 04:44:04;;;;;;;1.88;1.77;;;;;;;7.28;100.00;99711.91;4871655;29;20067;-69
2024/02/09 04:46:32;;;;;;;9.48;6.80;;;;;;;7.06;100.00;99669.22;4873003;29;20076;-70
2024/02/09 04:48:59;;;;;;;2.38;2.28;;;;;;;7.38;100.00;99726.69;4872997;29;20029;-70
2024/02/09 04:51:25;;;;;;;2.10;2.00;;;;;;;6.96;100.00;99644.00;4872396;29;20049;-69
2024/02/09 04:53:51;;;;;;;1.02;1.02;;;;;;;7.01;100.00;99649.22;4854352;29;20138;-69
2024/02/09 04:56:30;;;;;;;1.30;1.23;;;;;;;7.38;100.00;99724.09;4855084;29;20892;-71
2024/02/09 04:59:09;;;;;;;18.27;17.17;;;;;;;7.33;100.00;99730.19;4872541;29;20055;-70
2024/02/09 05:01:38;;;;;;;0.65;0.65;;;;;;;7.19;100.00;99728.41;4874272;29;20140;-69
2024/02/09 05:04:06;;;;;;;0.50;0.50;;;;;;;6.73;100.00;99644.81;4881466;29;20024;-69
2024/02/09 05:06:32;;;;;;;2.35;2.20;;;;;;;6.69;100.00;99648.25;4876692;29;20049;-69
2024/02/09 05:08:59;;;;;;;0.90;0.90;;;;;;;7.08;100.00;99716.19;4872008;29;20068;-70
2024/02/09 05:11:30;;;;;;;2.17;2.08;;;;;;;7.21;100.00;99706.66;4870784;29;20045;-72
2024/02/09 05:13:59;;;;;;;0.30;0.30;;;;;;;7.19;100.00;99702.31;4871399;29;20129;-69
2024/02/09 05:16:27;;;;;;;0.35;0.35;;;;;;;6.91;100.00;99640.50;4867754;29;20077;-69
2024/02/09 05:18:53;;;;;;;7.43;5.18;;;;;;;7.27;100.00;99701.44;4872414;29;20096;-69
2024/02/09 05:21:19;;;;;;;2.65;2.38;;;;;;;6.78;100.00;99630.91;4870475;29;20464;-70
2024/02/09 05:23:45;;;;;;;1.15;0.50;;;;;;;6.78;100.00;99646.56;4868362;29;20109;-71
2024/02/09 05:26:11;;;;;;;0.85;0.85;;;;;;;6.18;100.00;99576.88;4869610;29;20515;-70
2024/02/09 05:28:39;;;;;;;0.50;0.50;;;;;;;6.85;100.00;99677.00;4861827;29;20041;-71
2024/02/09 05:31:25;;;;;;;0.32;0.32;;;;;;;7.29;100.00;99739.72;4872142;29;20481;-71
2024/02/09 05:33:52;;;;;;;0.43;0.43;;;;;;;7.26;100.00;99731.00;4868689;29;20105;-71
2024/02/09 05:36:22;;;;;;;1.45;1.40;;;;;;;7.14;100.00;99724.00;4870667;29;20049;-70
2024/02/09 05:38:49;;;;;;;3.45;3.15;;;;;;;7.01;100.00;99749.19;4865334;29;20583;-70
2024/02/09 05:41:16;;;;;;;3.33;3.20;;;;;;;6.59;100.00;99649.09;4869053;29;20049;-71
2024/02/09 05:44:00;;;;;;;0.50;0.50;;;;;;;6.69;100.00;99661.28;4869664;29;20462;-71
2024/02/09 05:46:26;;;;;;;0.38;0.38;;;;;;;6.55;100.00;99636.91;4870715;29;20453;-71
2024/02/09 05:48:52;;;;;;;6.70;1.00;;;;;;;7.06;100.00;99726.59;4870663;29;20051;-71
2024/02/09 05:51:18;;;;;;;15.23;14.15;;;;;;;6.61;100.00;99644.75;4865446;29;20051;-71
2024/02/09 05:53:47;;;;;;;0.93;0.65;;;;;;;7.26;100.00;99751.88;4866688;29;20147;-70
2024/02/09 05:56:13;;;;;;;1.98;1.88;;;;;;;7.34;100.00;99744.97;4867850;29;20057;-70
2024/02/09 05:58:39;;;;;;;0.55;0.55;;;;;;;6.81;100.00;99670.88;4869135;29;20053;-71
2024/02/09 06:01:05;;;;;;;0.77;0.73;;;;;;;6.68;100.00;99637.84;4870887;29;20030;-70
2024/02/09 06:03:32;;;;;;;0.77;0.77;;;;;;;6.94;100.00;99675.28;4870786;29;20128;-70
2024/02/09 06:05:57;;;;;;;0.63;0.63;;;;;;;7.48;100.00;99751.06;4869191;29;20049;-70
2024/02/09 06:08:23;;;;;;;1.33;1.23;;;;;;;6.91;100.00;99646.59;4868119;29;20105;-69
2024/02/09 06:10:49;;;;;;;0.60;0.60;;;;;;;7.46;100.00;99744.97;4869297;29;20053;-71
2024/02/09 06:13:14;;;;;;;12.30;11.63;;;;;;;7.02;100.00;99658.78;4873942;29;20481;-71
2024/02/09 06:15:41;;;;;;;0.43;0.43;;;;;;;7.52;100.00;99742.38;4853288;29;20082;-72
2024/02/09 06:18:06;;;;;;;0.50;0.50;;;;;;;7.32;100.00;99717.97;4868174;29;20061;-72
2024/02/09 06:20:33;;;;;;;1.27;0.47;;;;;;;7.53;100.00;99741.50;4871790;29;20109;-71
2024/02/09 06:22:59;;;;;;;1.27;1.00;;;;;;;7.43;100.00;99721.47;4867861;29;20505;-74
2024/02/09 06:25:27;;;;;;;0.50;0.30;;;;;;;7.54;100.00;99727.59;4869907;29;20052;-75
2024/02/09 06:27:55;;;;;;;0.40;0.40;;;;;;;7.67;100.00;99733.69;4870456;29;20856;-75
2024/02/09 06:30:22;;;;;;;0.63;0.63;;;;;;;7.13;100.00;99633.59;4872139;29;20490;-73
2024/02/09 06:32:48;;;;;;;4.57;4.30;;;;;;;7.66;100.00;99746.75;4873244;29;20041;-78
2024/02/09 06:35:14;;;;;;;1.20;1.10;;;;;;;7.24;100.00;99685.78;4868740;29;20068;-80
2024/02/09 06:37:39;;;;;;;1.15;1.15;;;;;;;7.61;100.00;99738.91;4869070;29;20073;-78
2024/02/09 06:40:08;;;;;;;0.50;0.50;;;;;;;7.87;100.00;99769.41;4871193;29;20093;-84
2024/02/09 06:42:34;;;;;;;0.57;0.57;;;;;;;7.92;100.00;99759.81;4876963;29;20483;-84
2024/02/09 06:45:00;;;;;;;2.03;0.70;;;;;;;8.00;100.00;99760.69;4875409;29;20405;-83
2024/02/09 06:47:26;;;;;;;5.18;4.88;;;;;;;7.95;100.00;99738.91;4873491;29;20057;-83
2024/02/09 06:49:51;;;;;;;1.80;1.70;;;;;;;8.20;100.00;99765.91;4876658;29;20370;-78
2024/02/09 06:52:18;;;;;;;0.50;0.50;;;;;;;8.23;100.00;99772.00;4874123;29;20083;-82
2024/02/09 06:54:45;;;;;;;0.40;0.40;;;;;;;7.91;100.00;99721.50;4874633;29;20081;-78
2024/02/09 06:57:11;;;;;;;0.65;0.65;;;;;;;8.32;100.00;99783.31;4874348;29;20049;-82
2024/02/09 06:59:40;;;;;;;0.95;0.95;;;;;;;8.43;100.00;99776.38;4873270;29;20450;-82
2024/02/09 07:02:06;;;;;;;0.20;0.20;;;;;;;8.48;100.00;99766.78;4870638;29;20057;-84
2024/02/09 07:04:32;;;;;;;0.20;0.20;;;;;;;8.08;100.00;99692.75;4874194;29;20502;-82
2024/02/09 07:07:05;;;;;;;1.25;1.20;;;;;;;8.44;100.00;99741.50;4874266;29;20537;-82
2024/02/09 07:09:31;;;;;;;1.35;1.30;;;;;;;8.66;100.00;99778.91;4875493;29;20040;-82
2024/02/09 07:11:57;;;;;;;0.80;0.77;;;;;;;8.39;100.00;99698.78;4858067;29;20045;-83
2024/02/09 07:14:22;;;;;;;0.30;0.30;;;;;;;8.85;100.00;99770.16;4874340;29;20105;-82
2024/02/09 07:16:49;;;;;;;0.77;0.77;;;;;;;9.02;100.00;99791.03;4873409;29;20055;-82
2024/02/09 07:19:15;;;;;;;3.03;2.83;;;;;;;8.87;100.00;99750.09;4861161;29;20033;-80
2024/02/09 07:21:40;;;;;;;10.25;6.32;;;;;;;9.21;100.00;99793.56;4888102;29;20044;-82
2024/02/09 07:24:07;;;;;;;3.40;3.30;;;;;;;8.64;100.00;99694.41;4882555;29;20063;-80
2024/02/09 07:26:33;;;;;;;2.38;2.25;;;;;;;9.16;100.00;99762.19;4872993;29;20509;-81
2024/02/09 07:28:59;;;;;;;0.50;0.50;;;;;;;9.35;100.00;99790.91;4869717;29;20146;-80
2024/02/09 07:31:25;;;;;;;3.75;3.55;;;;;;;9.38;100.00;99793.50;4873466;29;20169;-79
2024/02/09 07:33:51;;;;;;;0.63;0.63;;;;;;;9.52;100.00;99770.72;4873928;29;20136;-80
2024/02/09 07:36:18;;;;;;;1.75;1.65;;;;;;;9.75;100.00;99788.03;4864242;29;20425;-82
2024/02/09 07:38:44;;;;;;;0.52;0.30;;;;;;;9.01;100.00;99691.59;4870071;29;20064;-81
2024/02/09 07:41:10;;;;;;;2.83;2.33;;;;;;;9.67;100.00;99782.84;4873400;29;20049;-81
2024/02/09 07:43:36;;;;;;;1.25;1.15;;;;;;;9.76;100.00;99782.75;4873661;29;20072;-81
2024/02/09 07:46:03;;;;;;;5.28;3.95;;;;;;;9.48;100.00;99771.59;4872402;29;20132;-83
2024/02/09 07:48:29;;;;;;;0.55;0.55;;;;;;;9.27;100.00;99710.66;4870731;29;20045;-81
2024/02/09 07:50:55;;;;;;;2.15;2.00;;;;;;;9.59;100.00;99758.44;4872788;29;20394;-80
2024/02/09 07:53:20;;;;;;;0.38;0.38;;;;;;;9.79;100.00;99768.81;4874022;29;20139;-82
2024/02/09 07:55:46;;;;;;;4.22;3.80;;;;;;;9.79;100.00;99766.19;4868198;29;20611;-83
2024/02/09 07:58:11;;;;;;;1.00;1.00;;;;;;;9.78;100.00;99756.56;4855928;29;20631;-83
2024/02/09 08:00:41;;;;;;;5.15;4.85;;;;;;;9.66;100.00;99761.00;4856324;29;20050;-82
2024/02/09 08:03:08;;;;;;;1.85;1.67;;;;;;;9.67;100.00;99754.91;4861911;29;20049;-81
2024/02/09 08:05:35;;;;;;;4.43;3.70;;;;;;;9.70;100.00;99743.53;4853959;29;20140;-79
2024/02/09 08:08:01;;;;;;;5.30;2.92;;;;;;;9.91;100.00;99751.22;4855134;29;20109;-84
2024/02/09 08:10:26;;;;;;;24.95;22.58;;;;;;;9.55;100.00;99665.91;4854920;29;20041;-82
2024/02/09 08:12:52;;;;;;;0.63;0.63;;;;;;;9.89;100.00;99745.13;4855883;29;20076;-79
2024/02/09 08:15:18;;;;;;;1.30;1.25;;;;;;;9.65;100.00;99674.59;4854316;29;20067;-83
2024/02/09 08:17:48;;;;;;;14.27;2.92;;;;;;;9.63;100.00;99674.59;4854179;29;20514;-80
2024/02/09 08:20:15;;;;;;;7.72;6.47;;;;;;;9.88;100.00;99669.13;4853480;29;20082;-83
2024/02/09 08:22:44;;;;;;;9.23;5.40;;;;;;;10.44;100.00;99748.16;4867568;29;20049;-82
2024/02/09 08:25:14;;;;;;;10.18;6.30;;;;;;;10.41;100.00;99724.59;4849819;29;20045;-83
2024/02/09 08:27:40;;;;;;;6.28;4.63;;;;;;;10.78;100.00;99774.91;4868161;29;20052;-81
2024/02/09 08:30:08;;;;;;;0.93;0.90;;;;;;;10.37;100.00;99686.16;4866373;29;20061;-82
2024/02/09 08:32:35;;;;;;;1.48;1.38;;;;;;;10.19;100.00;99663.63;4852882;29;20068;-80
2024/02/09 08:35:01;;;;;;;5.05;4.57;;;;;;;10.67;100.00;99698.91;4853591;29;20466;-82
2024/02/09 08:37:30;;;;;;;4.88;4.35;;;;;;;10.53;100.00;99670.22;4865163;29;20434;-84
2024/02/09 08:39:57;;;;;;;4.20;3.58;;;;;;;11.09;100.00;99780.66;4851824;29;20034;-81
2024/02/09 08:42:23;;;;;;;9.93;6.57;;;;;;;11.16;100.00;99771.81;4851786;29;20061;-81
2024/02/09 08:44:48;;;;;;;4.45;3.78;;;;;;;11.02;100.00;99754.50;4854987;29;20102;-82
2024/02/09 08:47:14;;;;;;;0.20;0.20;;;;;;;11.19;100.00;99760.38;4852274;29;20474;-81
2024/02/09 08:49:40;;;;;;;4.82;2.80;;;;;;;11.17;100.00;99776.19;4853838;29;20101;-81
2024/02/09 08:52:05;;;;;;;5.97;3.45;;;;;;;10.85;100.00;99702.22;4868115;29;20155;-82
2024/02/09 08:54:35;;;;;;;4.32;3.92;;;;;;;11.40;100.00;99761.88;4853752;29;20482;-82
2024/02/09 08:57:01;;;;;;;3.03;2.40;;;;;;;11.52;100.00;99766.06;4865146;29;20151;-82
2024/02/09 08:59:27;;;;;;;5.38;3.97;;;;;;;11.25;100.00;99710.44;4854645;29;20128;-82
2024/02/09 09:01:53;;;;;;;9.63;6.35;;;;;;;11.06;100.00;99664.31;4872187;29;20064;-80
2024/02/09 09:04:19;;;;;;;4.07;2.35;;;;;;;11.18;100.00;99686.00;4872312;29;20112;-83
2024/02/09 09:06:45;;;;;;;5.30;3.90;;;;;;;11.77;100.00;99753.44;4869249;29;20105;-85
2024/02/09 09:09:14;;;;;;;2.92;2.63;;;;;;;11.58;100.00;99700.31;4872406;29;20053;-83
2024/02/09 09:11:44;;;;;;;5.97;4.32;;;;;;;11.38;100.00;99658.59;4852658;29;20081;-81
2024/02/09 09:14:11;;;;;;;3.65;2.80;;;;;;;11.71;100.00;99741.28;4872016;29;20116;-83
2024/02/09 09:16:39;;;;;;;2.38;2.08;;;;;;;11.83;100.00;99753.38;4870828;29;20041;-82
2024/02/09 09:19:08;;;;;;;12.05;2.90;;;;;;;11.99;100.00;99744.38;4855289;29;20033;-81
2024/02/09 09:21:37;;;;;;;3.67;3.35;;;;;;;11.82;100.00;99734.09;4871133;29;20064;-81
2024/02/09 09:24:06;;;;;;;5.63;4.43;;;;;;;11.24;100.00;99642.16;4868008;29;20081;-83
2024/02/09 09:26:31;;;;;;;8.77;6.13;;;;;;;11.61;100.00;99668.72;4868644;29;20148;-80
2024/02/09 09:28:57;;;;;;;7.90;5.55;;;;;;;12.08;100.00;99740.72;4856243;29;20041;-84
2024/02/09 09:31:23;;;;;;;3.92;3.58;;;;;;;12.25;100.00;99727.28;4872519;29;20064;-83
2024/02/09 09:33:50;;;;;;;5.63;4.00;;;;;;;12.12;100.00;99705.56;4871787;29;20033;-80
2024/02/09 09:36:15;;;;;;;4.03;3.38;;;;;;;11.91;100.00;99658.63;4871988;29;20498;-82
2024/02/09 09:38:42;;;;;;;3.70;3.35;;;;;;;12.38;100.00;99738.44;4873548;29;20077;-80
2024/02/09 09:41:09;;;;;;;2.17;1.98;;;;;;;12.23;100.00;99736.94;4890308;29;20049;-80
2024/02/09 09:43:34;;;;;;;2.35;2.17;;;;;;;11.67;100.00;99657.25;4889204;29;20049;-80
2024/02/09 09:46:00;;;;;;;6.47;4.95;;;;;;;12.45;100.00;99740.94;4887732;29;20060;-82
2024/02/09 09:48:28;;;;;;;3.10;2.25;;;;;;;12.10;100.00;99661.78;4871917;29;20060;-85
2024/02/09 09:50:56;;;;;;;5.45;2.72;;;;;;;12.44;100.00;99743.59;4870949;29;20053;-82
2024/02/09 09:53:27;;;;;;;5.10;3.47;;;;;;;12.02;100.00;99682.97;4872058;29;20081;-80
2024/02/09 09:55:53;;;;;;;3.80;3.50;;;;;;;11.74;100.00;99678.16;4854942;29;20514;-81
2024/02/09 09:58:20;;;;;;;3.97;3.08;;;;;;;12.02;100.00;99657.53;4872160;29;20045;-84
2024/02/09 10:00:48;;;;;;;3.92;3.60;;;;;;;12.53;100.00;99709.22;4870388;29;20189;-84
2024/02/09 10:03:14;;;;;;;23.95;3.22;;;;;;;12.61;100.00;99717.81;4871042;29;20063;-84
2024/02/09 10:05:40;;;;;;;4.10;3.80;;;;;;;12.65;100.00;99737.06;4870324;29;20053;-83
2024/02/09 10:08:07;;;;;;;9.48;3.03;;;;;;;12.58;100.00;99722.28;4871887;29;20056;-82
2024/02/09 10:10:36;;;;;;;7.45;5.07;;;;;;;12.49;100.00;99707.53;4871267;29;20069;-83
2024/02/09 10:13:11;;;;;;;6.05;5.45;;;;;;;12.75;100.00;99698.25;4872716;29;20048;-84
2024/02/09 10:15:47;;;;;;;2.38;2.05;;;;;;;12.77;100.00;99699.09;4870032;29;20143;-82
2024/02/09 10:18:13;;;;;;;3.78;3.15;;;;;;;12.92;100.00;99700.53;4871318;29;20094;-78
2024/02/09 10:20:40;;;;;;;1.60;1.50;;;;;;;13.09;100.00;99709.81;4869878;29;20079;-83
2024/02/09 10:23:06;;;;;;;2.97;2.70;;;;;;;12.76;100.00;99636.78;4870537;29;20061;-84
2024/02/09 10:25:33;;;;;;;4.30;3.55;;;;;;;13.17;100.00;99688.56;4867599;29;20101;-84
2024/02/09 10:27:59;;;;;;;2.47;1.98;;;;;;;13.23;100.00;99684.94;4876672;29;20053;-82
2024/02/09 10:30:27;;;;;;;3.40;3.10;;;;;;;13.37;100.00;99653.00;4871308;29;20081;-83
2024/02/09 10:32:52;;;;;;;6.28;3.13;;;;;;;13.67;100.00;99686.56;4870336;29;20053;-80
2024/02/09 10:35:19;;;;;;;3.15;2.45;;;;;;;13.41;100.00;99647.63;4871072;29;20148;-82
2024/02/09 10:37:44;;;;;;;5.68;3.20;;;;;;;13.34;100.00;99597.75;4872065;29;20049;-82
2024/02/09 10:40:11;;;;;;;4.65;3.20;;;;;;;13.79;100.00;99666.03;4872322;29;20036;-83
2024/02/09 10:42:40;;;;;;;4.90;4.35;;;;;;;13.65;100.00;99676.94;4873518;29;20089;-84
2024/02/09 10:45:10;;;;;;;3.97;2.17;;;;;;;13.22;100.00;99602.38;4872148;29;20080;-84
2024/02/09 10:47:37;;;;;;;6.93;2.95;;;;;;;13.48;100.00;99590.38;4852049;29;20045;-84
2024/02/09 10:50:06;;;;;;;3.35;2.80;;;;;;;14.11;100.00;99646.75;4870210;29;20425;-83
2024/02/09 10:52:37;;;;;;;6.32;5.28;;;;;;;14.51;100.00;99657.06;4871527;29;20037;-84
2024/02/09 10:55:08;;;;;;;4.90;3.75;;;;;;;14.91;98.80;99652.44;4872416;29;20049;-85
2024/02/09 10:57:34;;;;;;;4.53;3.63;;;;;;;15.03;93.64;99609.81;4870259;29;20061;-84
2024/02/09 11:00:05;;;;;;;3.22;2.53;;;;;;;15.14;90.88;99556.59;4873145;29;20080;-83
2024/02/09 11:02:33;;;;;;;2.70;2.50;;;;;;;15.11;89.97;99564.66;4872085;29;20057;-82
2024/02/09 11:05:00;;;;;;;5.05;4.60;;;;;;;15.33;87.00;99626.44;4871941;29;20057;-84
2024/02/09 11:07:27;;;;;;;3.25;2.58;;;;;;;14.48;87.53;99548.06;4873365;29;20037;-83
2024/02/09 11:09:53;;;;;;;5.43;3.35;;;;;;;15.09;89.79;99530.34;4857659;29;20021;-80
2024/02/09 11:12:21;;;;;;;2.15;1.77;;;;;;;16.03;85.34;99610.00;4874086;29;20076;-81
2024/02/09 11:14:47;;;;;;;2.33;1.92;;;;;;;16.01;80.33;99545.72;4864181;29;20052;-84
2024/02/09 11:17:18;;;;;;;4.57;3.03;;;;;;;16.21;75.88;99603.22;4872457;29;20072;-84
2024/02/09 11:19:44;;;;;;;2.28;2.05;;;;;;;16.15;74.25;99557.56;4874655;29;20040;-81
2024/02/09 11:22:11;;;;;;;2.97;2.33;;;;;;;16.07;74.03;99528.75;4873014;29;20044;-84
2024/02/09 11:24:37;;;;;;;4.05;3.03;;;;;;;16.06;74.04;99526.13;4871524;29;20105;-83
2024/02/09 11:27:04;;;;;;;5.65;3.40;;;;;;;16.72;70.64;99596.03;4875152;29;20490;-83
2024/02/09 11:29:34;;;;;;;2.42;2.17;;;;;;;16.58;69.30;99591.25;4878575;29;20079;-82
2024/02/09 11:32:02;;;;;;;1.90;1.77;;;;;;;16.08;70.24;99519.88;4876589;29;20490;-84
2024/02/09 11:34:30;;;;;;;6.15;3.13;;;;;;;16.29;71.54;99605.56;4869627;29;20033;-83
2024/02/09 11:36:58;;;;;;;1.88;1.50;;;;;;;15.87;74.63;99606.19;4869777;29;20051;-81
2024/02/09 11:39:25;;;;;;;16.85;2.85;;;;;;;16.66;72.36;99599.75;4880166;29;21223;-84
2024/02/09 11:41:51;;;;;;;2.70;1.63;;;;;;;16.44;73.58;99586.47;4873636;29;20048;-83
2024/02/09 11:44:21;;;;;;;1.52;1.40;;;;;;;16.50;71.71;99589.81;4875873;29;20053;-84
2024/02/09 11:46:48;;;;;;;1.77;1.58;;;;;;;16.77;69.77;99580.81;4871667;29;20465;-83
2024/02/09 11:49:14;;;;;;;2.22;1.52;;;;;;;16.44;68.21;99551.19;4874087;29;20400;-84
2024/02/09 11:51:40;;;;;;;1.45;1.35;;;;;;;16.70;69.08;99583.78;4876744;29;20057;-82
2024/02/09 11:54:11;;;;;;;2.35;2.17;;;;;;;16.92;69.28;99586.47;4885230;29;20084;-81
2024/02/09 11:56:38;;;;;;;4.40;3.33;;;;;;;16.60;69.17;99584.13;4886139;29;20059;-83
2024/02/09 11:59:04;;;;;;;1.60;1.38;;;;;;;15.95;68.47;99497.44;4883234;29;20079;-80
2024/02/09 12:01:31;;;;;;;1.35;1.25;;;;;;;15.96;68.45;99492.06;4893673;29;20092;-80
2024/02/09 12:03:57;;;;;;;3.13;2.10;;;;;;;16.45;67.91;99566.16;4888299;29;20056;-81
2024/02/09 12:06:23;;;;;;;4.05;2.03;;;;;;;16.14;70.01;99505.56;4884783;29;20103;-77
2024/02/09 12:08:50;;;;;;;1.85;1.67;;;;;;;16.17;66.88;99563.66;4887929;29;20045;-80
2024/02/09 12:11:18;;;;;;;5.47;4.57;;;;;;;16.16;64.53;99546.06;4886068;29;20053;-82
2024/02/09 12:13:46;;;;;;;9.68;2.22;;;;;;;15.79;64.20;99505.94;4887024;29;20515;-81
2024/02/09 12:16:16;;;;;;;1.02;0.93;;;;;;;15.70;63.28;99479.81;4885806;29;20040;-80
2024/02/09 12:18:46;;;;;;;0.85;0.85;;;;;;;15.67;63.47;99479.03;4876495;29;20460;-82
2024/02/09 12:21:14;;;;;;;2.03;1.80;;;;;;;15.86;62.83;99489.84;4869507;29;20056;-84
2024/02/09 12:23:40;;;;;;;0.40;0.40;;;;;;;16.31;62.85;99561.38;4872827;29;20057;-82
2024/02/09 12:26:08;;;;;;;1.75;1.40;;;;;;;16.09;63.18;99548.06;4878301;29;20049;-81
2024/02/09 12:28:35;;;;;;;2.75;1.30;;;;;;;16.07;62.80;99520.81;4880072;29;20033;-76
2024/02/09 12:31:05;;;;;;;1.60;1.50;;;;;;;16.04;63.54;99535.00;4881932;29;20059;-79
2024/02/09 12:33:30;;;;;;;2.83;1.00;;;;;;;15.90;63.29;99484.38;4880320;29;20053;-80
2024/02/09 12:36:07;;;;;;;0.52;0.52;;;;;;;16.40;63.38;99558.38;4881536;29;20076;-82
2024/02/09 12:38:40;;;;;;;3.53;2.40;;;;;;;16.34;62.97;99560.38;4875520;29;20658;-84
2024/02/09 12:41:06;;;;;;;2.70;1.58;;;;;;;16.24;64.03;99552.78;4872791;29;20516;-84
2024/02/09 12:43:32;;;;;;;0.50;0.50;;;;;;;16.17;64.42;99543.34;4866666;29;20033;-84
2024/02/09 12:46:00;;;;;;;2.05;1.85;;;;;;;16.24;64.73;99550.13;4873334;29;20037;-84
2024/02/09 12:48:29;;;;;;;2.63;1.65;;;;;;;15.43;65.30;99433.16;4871980;29;20574;-80
2024/02/09 12:50:56;;;;;;;1.40;1.15;;;;;;;15.86;64.58;99466.03;4880954;29;20076;-79
2024/02/09 12:53:25;;;;;;;1.35;0.90;;;;;;;16.35;64.32;99539.16;4893730;29;20037;-78
2024/02/09 12:55:51;;;;;;;1.73;1.63;;;;;;;16.38;64.05;99531.09;4870178;29;20056;-83
2024/02/09 12:58:19;;;;;;;3.65;1.55;;;;;;;16.02;63.57;99456.59;4874151;29;20068;-83
2024/02/09 13:00:46;;;;;;;1.70;1.60;;;;;;;16.42;63.79;99530.06;4870984;29;20045;-84
2024/02/09 13:03:12;;;;;;;1.33;1.23;;;;;;;16.50;63.56;99516.53;4872568;29;20053;-82
2024/02/09 13:05:39;;;;;;;1.48;1.38;;;;;;;16.61;63.72;99547.91;4872721;29;20072;-83
2024/02/09 13:08:05;;;;;;;2.70;2.45;;;;;;;15.63;62.67;99383.91;4872047;29;20049;-82
2024/02/09 13:10:33;;;;;;;1.25;1.05;;;;;;;16.45;63.38;99550.25;4869473;29;20048;-82
2024/02/09 13:13:05;;;;;;;2.47;2.10;;;;;;;15.87;62.94;99478.31;4872428;29;20033;-84
2024/02/09 13:15:32;;;;;;;1.33;1.23;;;;;;;16.47;62.43;99532.53;4868009;29;20089;-82
2024/02/09 13:17:58;;;;;;;0.47;0.40;;;;;;;16.41;63.19;99519.53;4855373;29;20057;-81
2024/02/09 13:20:23;;;;;;;2.78;2.00;;;;;;;16.44;63.03;99533.53;4867586;29;20382;-85